Huvudsida
METAR-TAF:

METAR-TAF

Flygplatser :

Pian Rosa, Italien

latitud: 45-56N, longitud: 007-42E, höjd: 3480 m

Aktuellt väderrapport

Denna rapport gjordes för 43 minuter sedan, klockan 07:55 UTC
Vind 13 kt från nordost
Temperatur -4°C
Fuktighet 63%
Tryck 1032 hPa
Sikt 10 km eller mer
Inga moln under 1 500 m eller inga cumulonimbus

METAR: LIMH 220755Z 05013KT CAVOK M04/M10 Q1032 RMK SCT SCT100 MON LIB VAL NIL VIS MIN 9999

Tid: 09:38 (08:38 UTC)


TAF: saknas

Aktuella väderrapporter och prognoser från 4000 flygplatser (METAR- och TAF-rapporter).

De tillgängliga stationerna syns som gula och röda prickar på kartan.

För musen över prickarna för att se namnen på stationerna.

Klicka sedan för att få väderrapporter och prognoser.

För att ändra kartan: Klicka på de gröna knapparna med ett svart kors på för att zooma in; den gröna knappen med ett streck på för att zooma ut; eller på de gröna pilarna för angränsande kartor.


METAR-TAF: